KHON/HON METAR and TAF weather

Enter ICAO airport designator
Station Type Date Time Source
KHON METAR 2019/06/27 10:55 UTC NOAA

KHON 271055Z AUTO 10010KT 8SM RA SCT033 BKN050 BKN080 21/19 A2994 RMK AO2 RAB14 TSB07E30 SLP127 P0005 T02060189


Station Type Date Time Source
KHON Decoded METAR 2019/06/27 10:55 UTC NOAA

HURON REGIONAL AIRPORT, SD, United States (KHON) 44-23N 098-14W 390M
Jun 27, 2019 - 06:55 AM EDT / 2019.06.27 1055 UTC
Wind: from the E (100 degrees) at 12 MPH (10 KT):0
Visibility: 8 mile(s):0
Sky conditions: mostly cloudy
Weather: rain
Precipitation last hour: 0.05 inches
Temperature: 69.1 F (20.6 C)
Dew Point: 66.0 F (18.9 C)
Relative Humidity: 89%
Pressure (altimeter): 29.94 in. Hg (1013 hPa)
ob: KHON 271055Z AUTO 10010KT 8SM RA SCT033 BKN050 BKN080 21/19 A2994 RMK AO2 RAB14 TSB07E30 SLP127 P0005 T02060189
cycle: 11

Station Type Date Time Source
KHON TAF 2019/06/27 06:24 UTC NOAA

TAF KHON 270522Z 2706/2806 15007KT P6SM BKN200
FM270900 13007KT P6SM VCSH BKN080
TEMPO 2710/2712 VRB25G45KT 2SM +TSRA BKN020CB
FM271300 11005KT P6SM BKN100
FM271700 13008KT P6SM SCT120
FM280100 10007KT P6SM FEW120
FM280500 08008KT P6SM FEW045

Example: see airport list